Time;durP1;ratioP1;P1;durP2;ratioP2;P2;SDS_P1;SDS_P2;PMS_P1;PMS_P2;Temp;Humidity;BMP_temperature;BMP_pressure;BME280_temperature;BME280_humidity;BME280_pressure;Samples;Min_cycle;Max_cycle;Signal;HPM_P1;HPM_P2
2021/03/11 00:01:31;;;;;;;43.85;21.17;;;;;;;2.99;61.98;99947.72;5015944;28;20356;-74
2021/03/11 00:03:57;;;;;;;42.22;19.45;;;;;;;2.76;62.85;99925.88;5016438;28;20038;-76
2021/03/11 00:06:22;;;;;;;48.67;21.98;;;;;;;3.39;61.36;99920.97;5015333;28;20115;-73
2021/03/11 00:08:48;;;;;;;45.85;20.33;;;;;;;2.65;63.21;99924.44;5021960;28;20037;-75
2021/03/11 00:11:13;;;;;;;47.70;19.48;;;;;;;3.19;61.50;99922.28;5014014;28;20168;-75
2021/03/11 00:13:39;;;;;;;41.60;19.00;;;;;;;2.76;63.28;99914.72;5013205;28;20123;-74
2021/03/11 00:16:04;;;;;;;40.45;19.75;;;;;;;3.53;61.00;99911.13;5014889;28;20033;-74
2021/03/11 00:18:30;;;;;;;41.55;18.13;;;;;;;2.80;62.89;99905.16;5012777;28;20149;-73
2021/03/11 00:20:55;;;;;;;39.97;19.02;;;;;;;2.81;63.01;99891.38;5019160;28;20515;-74
2021/03/11 00:23:21;;;;;;;35.28;17.38;;;;;;;2.48;64.47;99896.41;5015566;28;20087;-73
2021/03/11 00:25:46;;;;;;;42.58;18.48;;;;;;;2.38;64.12;99894.91;5011192;28;20591;-72
2021/03/11 00:28:12;;;;;;;44.03;19.10;;;;;;;3.63;60.77;99901.41;5015093;28;20046;-73
2021/03/11 00:30:38;;;;;;;34.20;16.88;;;;;;;2.80;63.50;99884.50;5011513;28;20256;-74
2021/03/11 00:33:03;;;;;;;37.45;17.77;;;;;;;3.28;61.78;99885.06;5016373;28;20474;-74
2021/03/11 00:35:29;;;;;;;36.97;16.27;;;;;;;3.42;61.44;99882.13;5018578;28;20511;-74
2021/03/11 00:37:54;;;;;;;39.40;19.65;;;;;;;3.48;60.82;99874.22;5014819;28;20558;-74
2021/03/11 00:40:22;;;;;;;35.50;16.98;;;;;;;3.10;62.33;99870.03;5016138;28;20216;-75
2021/03/11 00:42:48;;;;;;;33.90;15.98;;;;;;;3.09;62.23;99870.91;5014109;28;20040;-74
2021/03/11 00:45:15;;;;;;;40.28;15.40;;;;;;;3.11;61.57;99875.16;5028763;28;20454;-74
2021/03/11 00:47:42;;;;;;;30.40;15.88;;;;;;;3.07;62.77;99883.00;5018486;28;20030;-75
2021/03/11 00:50:14;;;;;;;37.20;14.88;;;;;;;2.99;62.44;99865.13;5021907;28;20033;-74
2021/03/11 00:52:39;;;;;;;;;;;;;;;3.22;62.04;99845.63;5017856;28;20124;-76
2021/03/11 00:55:07;;;;;;;33.45;15.15;;;;;;;3.05;62.71;99852.06;5024304;28;20443;-76
2021/03/11 00:57:33;;;;;;;26.30;14.52;;;;;;;2.97;62.58;99841.09;5016488;28;20117;-75
2021/03/11 00:59:59;;;;;;;32.03;14.40;;;;;;;2.41;65.07;99835.53;5019344;28;20116;-74
2021/03/11 01:02:25;;;;;;;27.23;14.55;;;;;;;3.42;61.82;99845.97;5015479;28;20029;-75
2021/03/11 01:04:51;;;;;;;27.65;14.15;;;;;;;2.67;63.64;99838.38;5005821;28;20046;-73
2021/03/11 01:07:18;;;;;;;33.13;13.80;;;;;;;2.75;64.09;99831.28;5005785;28;20079;-74
2021/03/11 01:09:44;;;;;;;31.02;13.73;;;;;;;2.70;64.17;99807.31;5017053;28;20535;-74
2021/03/11 01:12:13;;;;;;;30.77;13.27;;;;;;;3.38;62.46;99815.94;5019802;28;20171;-73
2021/03/11 01:14:38;;;;;;;30.80;14.23;;;;;;;2.96;63.75;99803.25;5019027;28;20028;-73
2021/03/11 01:17:04;;;;;;;28.08;12.60;;;;;;;3.26;62.61;99796.44;5018928;28;20116;-74
2021/03/11 01:19:29;;;;;;;25.98;11.90;;;;;;;3.07;63.09;99806.41;5019350;28;20041;-73
2021/03/11 01:21:55;;;;;;;29.30;13.38;;;;;;;3.08;63.23;99808.09;5017636;28;20038;-77
2021/03/11 01:24:20;;;;;;;28.17;13.50;;;;;;;3.11;63.13;99794.25;5015991;28;20569;-74
2021/03/11 01:26:46;;;;;;;25.83;12.57;;;;;;;2.47;65.27;99794.16;5019710;28;20030;-73
2021/03/11 01:29:11;;;;;;;23.80;12.45;;;;;;;3.31;62.85;99801.50;5014850;28;20439;-74
2021/03/11 01:31:37;;;;;;;31.38;13.35;;;;;;;3.11;62.74;99795.13;5017148;28;20038;-73
2021/03/11 01:34:02;;;;;;;24.20;12.27;;;;;;;3.43;62.04;99779.69;5018877;28;20509;-73
2021/03/11 01:36:28;;;;;;;27.27;11.98;;;;;;;3.52;62.14;99782.84;5014258;28;20414;-73
2021/03/11 01:38:53;;;;;;;28.20;12.05;;;;;;;3.71;61.54;99771.97;5003898;28;20595;-73
2021/03/11 01:41:19;;;;;;;28.95;13.75;;;;;;;3.85;60.59;99759.50;5018264;28;20025;-72
2021/03/11 01:43:44;;;;;;;26.58;12.00;;;;;;;3.64;61.53;99752.38;5012898;28;20040;-73
2021/03/11 01:46:10;;;;;;;27.20;11.80;;;;;;;3.62;61.57;99746.41;5017445;28;20047;-73
2021/03/11 01:48:35;;;;;;;22.85;11.75;;;;;;;3.27;62.80;99740.47;5014044;28;20033;-73
2021/03/11 01:51:02;;;;;;;25.70;12.93;;;;;;;3.63;61.89;99727.41;5011423;28;20021;-72
2021/03/11 01:53:29;;;;;;;20.13;10.18;;;;;;;3.49;62.38;99717.47;5016704;28;20037;-73
2021/03/11 01:55:54;;;;;;;27.83;11.45;;;;;;;3.32;62.56;99712.81;5015630;28;20038;-73
2021/03/11 01:58:20;;;;;;;25.88;11.80;;;;;;;3.70;61.07;99709.09;5013009;28;20040;-73
2021/03/11 02:00:46;;;;;;;20.50;12.10;;;;;;;3.90;60.69;99705.91;5014429;28;20033;-74
2021/03/11 02:03:11;;;;;;;25.05;11.40;;;;;;;3.37;62.38;99700.63;5016112;28;20068;-74
2021/03/11 02:05:37;;;;;;;22.02;10.73;;;;;;;3.23;63.27;99702.72;4997597;28;20040;-74
2021/03/11 02:08:02;;;;;;;18.80;10.02;;;;;;;3.50;62.55;99694.19;5014557;28;20033;-74
2021/03/11 02:10:30;;;;;;;26.02;10.95;;;;;;;3.69;61.68;99685.88;5013326;28;20444;-75
2021/03/11 02:13:18;;;;;;;19.08;10.15;;;;;;;4.20;59.92;99669.63;5016506;28;20560;-74
2021/03/11 02:15:56;;;;;;;19.95;10.65;;;;;;;3.85;61.25;99661.28;5006387;28;20510;-74
2021/03/11 02:18:29;;;;;;;21.17;9.88;;;;;;;3.99;60.68;99661.69;5020141;28;20071;-75
2021/03/11 02:21:06;;;;;;;21.65;9.43;;;;;;;3.87;60.96;99653.44;5020855;28;20558;-75
2021/03/11 02:24:00;;;;;;;18.23;8.43;;;;;;;3.48;62.49;99644.31;5002191;28;20523;-74
2021/03/11 02:26:59;;;;;;;17.50;9.05;;;;;;;4.09;60.80;99622.59;5011222;28;20033;-74
2021/03/11 02:29:35;;;;;;;16.23;8.02;;;;;;;3.57;62.39;99615.59;5013338;28;20045;-75
2021/03/11 02:32:02;;;;;;;21.05;8.38;;;;;;;3.62;62.34;99606.88;5014048;28;20099;-73
2021/03/11 02:34:34;;;;;;;18.67;8.60;;;;;;;3.40;63.03;99607.53;5017745;28;20069;-74
2021/03/11 02:37:04;;;;;;;21.77;9.57;;;;;;;4.39;59.87;99600.88;5013377;28;20989;-74
2021/03/11 02:39:30;;;;;;;15.77;8.02;;;;;;;3.34;62.54;99584.50;5014788;28;20044;-75
2021/03/11 02:41:58;;;;;;;14.25;7.47;;;;;;;3.00;63.97;99590.59;5014114;28;20037;-75
2021/03/11 02:44:25;;;;;;;13.32;7.15;;;;;;;3.72;61.84;99578.09;5016003;28;20057;-75
2021/03/11 02:46:52;;;;;;;17.55;7.60;;;;;;;3.67;61.76;99580.00;5018691;28;20041;-75
2021/03/11 02:49:22;;;;;;;13.88;7.65;;;;;;;3.59;62.30;99574.22;5015927;28;20076;-74
2021/03/11 02:51:49;;;;;;;13.20;6.13;;;;;;;3.56;62.05;99572.59;5014878;28;20093;-74
2021/03/11 02:54:16;;;;;;;12.85;6.13;;;;;;;3.67;61.87;99571.38;5017282;28;20040;-75
2021/03/11 02:56:44;;;;;;;18.77;7.45;;;;;;;3.54;62.82;99573.53;5015229;28;20061;-73
2021/03/11 02:59:10;;;;;;;15.32;7.43;;;;;;;3.89;61.50;99559.44;5020921;28;20040;-73
2021/03/11 03:01:38;;;;;;;15.15;5.72;;;;;;;3.55;62.58;99550.22;5016255;28;20072;-74
2021/03/11 03:04:04;;;;;;;11.90;5.80;;;;;;;3.50;62.63;99548.69;5001721;28;20506;-74
2021/03/11 03:06:32;;;;;;;12.10;6.50;;;;;;;3.54;62.60;99540.78;5012079;28;20530;-72
2021/03/11 03:08:59;;;;;;;12.70;6.15;;;;;;;3.77;61.92;99539.19;5024071;28;20045;-74
2021/03/11 03:11:24;;;;;;;14.90;6.03;;;;;;;4.07;61.01;99528.69;5011433;28;20033;-74
2021/03/11 03:13:52;;;;;;;14.40;5.38;;;;;;;4.07;61.40;99508.03;5011997;28;20037;-74
2021/03/11 03:16:18;;;;;;;11.77;5.65;;;;;;;3.71;62.20;99500.63;5007506;28;20056;-73
2021/03/11 03:18:44;;;;;;;12.00;5.90;;;;;;;4.26;60.40;99484.97;5017328;28;20025;-74
2021/03/11 03:21:12;;;;;;;10.88;5.13;;;;;;;3.57;62.44;99486.41;5013323;28;20052;-74
2021/03/11 03:23:42;;;;;;;12.63;5.07;;;;;;;3.71;62.10;99474.78;5017316;28;20036;-73
2021/03/11 03:26:08;;;;;;;10.57;5.10;;;;;;;3.90;62.02;99478.44;5016107;28;20070;-75
2021/03/11 03:28:34;;;;;;;14.05;4.75;;;;;;;3.71;62.27;99461.88;4997487;28;20066;-74
2021/03/11 03:31:00;;;;;;;7.68;5.18;;;;;;;4.02;61.44;99454.72;5017729;28;20041;-74
2021/03/11 03:33:26;;;;;;;6.20;5.00;;;;;;;3.80;62.03;99444.28;5013961;28;20030;-74
2021/03/11 03:35:52;;;;;;;10.90;5.18;;;;;;;4.01;61.36;99434.13;5012609;28;20513;-75
2021/03/11 03:38:18;;;;;;;9.05;4.72;;;;;;;4.42;60.45;99435.16;5021677;28;20614;-74
2021/03/11 03:40:44;;;;;;;8.20;3.97;;;;;;;4.24;60.61;99433.28;5011630;28;20033;-74
2021/03/11 03:43:18;;;;;;;10.40;4.75;;;;;;;3.62;62.66;99421.66;5014573;28;20025;-73
2021/03/11 03:45:51;;;;;;;8.30;5.13;;;;;;;4.21;61.40;99416.13;5012846;28;20029;-73
2021/03/11 03:48:27;;;;;;;9.88;4.93;;;;;;;3.56;62.64;99399.50;5014405;28;20057;-73
2021/03/11 03:50:54;;;;;;;9.23;4.55;;;;;;;3.93;62.06;99395.59;5012838;28;20068;-73
2021/03/11 03:53:27;;;;;;;6.85;3.88;;;;;;;4.11;61.55;99388.06;4998226;28;20094;-77
2021/03/11 03:55:58;;;;;;;11.63;4.63;;;;;;;3.66;63.01;99389.66;5017870;28;20478;-75
2021/03/11 03:58:27;;;;;;;6.63;4.22;;;;;;;3.85;62.15;99366.63;4995992;28;20214;-75
2021/03/11 04:00:54;;;;;;;10.75;4.93;;;;;;;3.88;62.49;99345.81;5037400;28;20121;-74
2021/03/11 04:03:22;;;;;;;9.13;5.03;;;;;;;4.04;62.20;99346.09;5010737;28;20576;-74
2021/03/11 04:05:49;;;;;;;6.72;4.00;;;;;;;4.04;62.03;99327.16;5013802;28;20459;-75
2021/03/11 04:08:16;;;;;;;7.53;3.95;;;;;;;3.42;64.24;99341.44;5013481;28;20498;-75
2021/03/11 04:10:42;;;;;;;12.73;5.78;;;;;;;4.27;61.43;99341.78;5011570;28;20109;-75
2021/03/11 04:13:09;;;;;;;11.02;5.53;;;;;;;3.52;63.13;99325.56;5019354;28;20168;-75
2021/03/11 04:15:36;;;;;;;8.48;4.78;;;;;;;3.57;63.69;99315.91;5012478;28;20052;-74
2021/03/11 04:18:02;;;;;;;7.70;4.93;;;;;;;3.46;63.87;99312.88;5017600;28;20038;-74
2021/03/11 04:20:28;;;;;;;10.73;5.20;;;;;;;3.77;62.42;99309.19;5009943;28;20037;-74
2021/03/11 04:22:55;;;;;;;12.48;5.82;;;;;;;4.37;61.07;99283.63;5013493;28;20038;-73
2021/03/11 04:25:22;;;;;;;9.02;5.35;;;;;;;3.95;62.03;99281.81;5013865;28;20419;-75
2021/03/11 04:27:47;;;;;;;7.13;4.90;;;;;;;3.72;63.22;99280.09;4999192;28;20116;-75
2021/03/11 04:30:14;;;;;;;9.05;5.43;;;;;;;4.39;61.31;99276.66;5016236;28;20540;-75
2021/03/11 04:32:41;;;;;;;11.13;5.75;;;;;;;4.09;61.61;99274.34;5015398;28;20037;-75
2021/03/11 04:35:09;;;;;;;8.68;4.88;;;;;;;4.46;61.08;99282.44;5013064;28;20056;-75
2021/03/11 04:37:37;;;;;;;9.30;5.03;;;;;;;3.97;62.58;99267.09;5013243;28;20141;-75
2021/03/11 04:40:03;;;;;;;7.57;4.97;;;;;;;4.12;62.03;99265.63;5015648;28;20066;-74
2021/03/11 04:42:29;;;;;;;9.95;4.50;;;;;;;4.13;61.48;99242.31;5012881;28;20041;-75
2021/03/11 04:44:54;;;;;;;10.55;5.03;;;;;;;4.49;60.80;99243.50;5014658;28;20393;-75
2021/03/11 04:47:20;;;;;;;8.73;5.15;;;;;;;3.53;63.47;99234.25;5013533;28;20502;-75
2021/03/11 04:49:47;;;;;;;7.40;4.30;;;;;;;3.33;64.22;99224.63;5013701;28;20041;-74
2021/03/11 04:52:13;;;;;;;6.43;4.20;;;;;;;3.82;63.26;99208.22;5014062;28;20057;-74
2021/03/11 04:54:39;;;;;;;8.20;4.78;;;;;;;4.09;62.44;99221.81;5011626;28;20038;-73
2021/03/11 04:57:06;;;;;;;6.22;3.80;;;;;;;3.98;62.67;99217.91;5021914;28;20115;-74
2021/03/11 04:59:31;;;;;;;7.75;4.28;;;;;;;4.40;61.29;99219.66;5012609;28;20479;-75
2021/03/11 05:01:58;;;;;;;6.43;4.50;;;;;;;4.30;61.95;99213.19;5016003;28;20036;-74
2021/03/11 05:04:23;;;;;;;8.25;4.10;;;;;;;4.47;61.40;99211.66;5015143;28;20142;-73
2021/03/11 05:06:50;;;;;;;7.20;3.35;;;;;;;3.43;64.82;99212.25;5015811;28;20030;-75
2021/03/11 05:09:15;;;;;;;7.53;3.63;;;;;;;4.46;62.08;99210.81;5011389;28;20145;-74
2021/03/11 05:11:42;;;;;;;6.20;4.63;;;;;;;3.97;62.73;99195.53;5021270;28;20125;-74
2021/03/11 05:14:08;;;;;;;6.45;3.58;;;;;;;4.19;62.11;99187.75;5015733;28;20498;-75
2021/03/11 05:16:33;;;;;;;5.63;3.90;;;;;;;3.73;63.26;99174.06;5011926;28;20025;-74
2021/03/11 05:18:59;;;;;;;7.18;3.90;;;;;;;3.44;65.30;99195.84;5010361;28;21606;-75
2021/03/11 05:21:24;;;;;;;6.80;4.28;;;;;;;3.59;64.30;99169.44;5014823;28;20037;-75
2021/03/11 05:23:50;;;;;;;7.60;3.75;;;;;;;3.59;65.00;99153.94;5020205;28;20033;-74
2021/03/11 05:26:16;;;;;;;8.55;4.85;;;;;;;4.14;63.32;99150.91;5019766;28;20091;-74
2021/03/11 05:28:41;;;;;;;7.10;4.10;;;;;;;4.18;62.81;99147.28;5010578;28;20041;-75
2021/03/11 05:31:07;;;;;;;5.90;3.30;;;;;;;3.32;64.80;99134.34;5014630;28;20499;-74
2021/03/11 05:33:32;;;;;;;6.93;4.50;;;;;;;4.47;62.14;99132.28;4995712;28;20080;-74
2021/03/11 05:35:58;;;;;;;6.45;3.40;;;;;;;4.20;62.40;99129.13;5011940;28;20077;-75
2021/03/11 05:38:23;;;;;;;8.73;3.95;;;;;;;4.45;61.62;99133.28;5015388;28;20388;-74
2021/03/11 05:40:53;;;;;;;7.90;3.47;;;;;;;4.31;62.53;99126.94;5018719;28;20033;-73
2021/03/11 05:43:19;;;;;;;6.43;3.42;;;;;;;4.52;61.36;99126.91;5018952;28;20040;-74
2021/03/11 05:45:46;;;;;;;6.13;3.60;;;;;;;4.11;62.64;99117.41;5022576;28;20057;-74
2021/03/11 05:48:15;;;;;;;7.85;3.65;;;;;;;4.83;60.62;99101.41;5017155;28;20389;-74
2021/03/11 05:50:43;;;;;;;7.88;4.30;;;;;;;4.76;60.95;99115.50;5014617;28;20109;-73
2021/03/11 05:53:13;;;;;;;6.60;3.88;;;;;;;4.18;62.84;99099.91;5015562;28;20076;-75
2021/03/11 05:55:40;;;;;;;6.93;3.90;;;;;;;4.17;62.72;99085.31;5017687;28;20064;-71
2021/03/11 05:58:07;;;;;;;8.25;3.97;;;;;;;4.52;62.57;99082.94;4997201;28;20029;-73
2021/03/11 06:00:33;;;;;;;9.70;4.15;;;;;;;5.05;60.64;99082.31;5014100;28;20637;-75
2021/03/11 06:03:00;;;;;;;6.35;3.63;;;;;;;4.08;63.40;99075.34;5014681;28;20038;-75
2021/03/11 06:05:26;;;;;;;8.15;4.38;;;;;;;4.24;63.56;99063.44;5016091;28;20533;-73
2021/03/11 06:07:52;;;;;;;5.82;3.78;;;;;;;4.24;63.57;99068.63;5014485;28;20049;-73
2021/03/11 06:10:19;;;;;;;6.63;4.00;;;;;;;4.52;62.41;99051.88;5011365;28;20065;-73
2021/03/11 06:12:47;;;;;;;12.93;5.22;;;;;;;4.16;63.12;99052.56;5019453;28;20088;-74
2021/03/11 06:15:31;;;;;;;7.70;3.50;;;;;;;4.49;62.45;99041.69;5015529;28;20562;-74
2021/03/11 06:17:59;;;;;;;9.88;4.85;;;;;;;4.74;62.20;99047.44;5013130;28;20030;-74
2021/03/11 06:20:24;;;;;;;8.30;3.92;;;;;;;4.27;63.42;99027.09;5016884;28;20029;-73
2021/03/11 06:22:50;;;;;;;8.25;4.47;;;;;;;5.03;61.35;99016.81;5020412;28;20048;-74
2021/03/11 06:25:16;;;;;;;6.73;3.50;;;;;;;5.52;59.74;99024.84;5016935;28;20026;-74
2021/03/11 06:27:42;;;;;;;7.85;3.33;;;;;;;5.56;59.35;99016.03;5015089;28;20480;-74
2021/03/11 06:30:27;;;;;;;9.80;4.30;;;;;;;4.37;62.64;99030.13;5017263;28;20034;-74
2021/03/11 06:32:57;;;;;;;8.23;4.30;;;;;;;4.90;61.15;99015.72;5024166;28;20839;-73
2021/03/11 06:35:23;;;;;;;20.52;5.80;;;;;;;4.43;62.05;99007.44;5018907;28;20042;-74
2021/03/11 06:37:49;;;;;;;7.82;3.60;;;;;;;4.95;61.23;99008.59;5028775;28;20280;-73
2021/03/11 06:40:20;;;;;;;13.55;5.95;;;;;;;5.12;61.16;99013.81;5021090;28;20033;-73
2021/03/11 06:42:47;;;;;;;8.15;4.43;;;;;;;5.09;61.40;98998.41;5017448;28;20068;-73
2021/03/11 06:45:21;;;;;;;10.52;5.00;;;;;;;5.30;60.47;99011.25;5018276;28;20026;-74
2021/03/11 06:47:49;;;;;;;11.27;5.18;;;;;;;4.84;61.57;98989.19;5020501;28;20038;-74
2021/03/11 06:50:14;;;;;;;7.78;3.80;;;;;;;5.28;60.39;98994.94;5018480;28;20030;-74
2021/03/11 06:52:59;;;;;;;10.02;4.95;;;;;;;5.20;60.27;99001.34;5015783;28;20048;-72
2021/03/11 06:55:24;;;;;;;8.43;3.88;;;;;;;5.50;60.08;98980.03;5017067;28;20033;-73
2021/03/11 06:57:50;;;;;;;7.13;3.88;;;;;;;4.99;61.60;98982.50;5010607;28;20041;-73
2021/03/11 07:00:20;;;;;;;8.90;3.72;;;;;;;5.59;60.32;98979.59;5025296;28;20033;-73
2021/03/11 07:02:50;;;;;;;7.60;4.82;;;;;;;5.11;61.94;98968.09;5019731;28;20535;-72
2021/03/11 07:05:16;;;;;;;11.10;4.47;;;;;;;5.15;62.06;98979.19;5021636;28;20034;-73
2021/03/11 07:07:41;;;;;;;9.77;5.15;;;;;;;5.55;61.90;98978.06;5027986;28;20040;-72
2021/03/11 07:10:07;;;;;;;9.20;4.68;;;;;;;5.21;62.74;98969.38;5019116;28;20214;-74
2021/03/11 07:13:09;;;;;;;10.07;4.18;;;;;;;5.15;62.73;98969.66;5019699;28;20160;-75
2021/03/11 07:15:36;;;;;;;9.20;4.60;;;;;;;5.06;63.46;98964.91;4962140;28;20030;-74
2021/03/11 07:18:06;;;;;;;6.72;3.67;;;;;;;4.77;64.78;98979.19;5014322;28;20127;-73
2021/03/11 07:20:33;;;;;;;8.82;4.32;;;;;;;5.17;62.88;98967.81;5025225;28;20030;-73
2021/03/11 07:23:09;;;;;;;16.05;4.50;;;;;;;5.33;62.56;98967.91;5015760;28;20129;-73
2021/03/11 07:25:48;;;;;;;6.45;3.95;;;;;;;5.48;62.15;98960.28;5024556;28;20100;-76
2021/03/11 07:28:28;;;;;;;6.93;4.07;;;;;;;5.33;62.53;98956.72;5017860;28;20052;-75
2021/03/11 07:30:54;;;;;;;8.82;4.72;;;;;;;5.51;61.85;98948.03;5043812;28;20025;-75
2021/03/11 07:33:22;;;;;;;7.10;4.28;;;;;;;5.08;62.82;98919.06;5034842;28;20037;-74
2021/03/11 07:35:50;;;;;;;8.15;5.13;;;;;;;4.69;65.13;98953.66;5010724;28;20391;-73
2021/03/11 07:38:22;;;;;;;5.75;4.25;;;;;;;5.18;63.50;98972.06;5029768;28;20035;-74
2021/03/11 07:40:53;;;;;;;7.22;4.13;;;;;;;5.02;63.62;98969.38;5044767;28;20033;-75
2021/03/11 07:43:20;;;;;;;8.43;4.95;;;;;;;5.78;61.65;98965.72;5032557;28;20429;-75
2021/03/11 07:45:46;;;;;;;7.38;4.35;;;;;;;5.47;62.84;98964.66;5012449;28;20048;-74
2021/03/11 07:48:13;;;;;;;10.93;4.47;;;;;;;5.37;63.01;98963.41;5027476;28;20056;-76
2021/03/11 07:50:44;;;;;;;7.95;4.57;;;;;;;5.70;61.72;98949.69;5022244;28;20424;-74
2021/03/11 07:53:10;;;;;;;11.63;5.50;;;;;;;5.74;61.63;98930.50;5025737;28;20037;-74
2021/03/11 07:55:36;;;;;;;11.60;4.72;;;;;;;5.75;61.52;98938.19;5022461;28;20519;-74
2021/03/11 07:58:16;;;;;;;7.32;4.50;;;;;;;5.91;60.82;98943.44;5025354;28;20052;-76
2021/03/11 08:00:41;;;;;;;10.57;5.30;;;;;;;6.91;57.83;98925.16;5023442;28;20033;-73
2021/03/11 08:03:24;;;;;;;8.52;5.15;;;;;;;7.81;55.33;98916.53;5030671;23;20119;-69
2021/03/11 08:05:50;;;;;;;;;;;;;;;7.26;56.03;98904.13;5007702;28;20073;-69
2021/03/11 08:08:30;;;;;;;5.82;3.72;;;;;;;6.35;58.53;98916.09;5021654;28;19917;-69
2021/03/11 08:11:00;;;;;;;9.90;3.78;;;;;;;5.62;61.02;98906.03;5012482;28;20041;-70
2021/03/11 08:13:36;;;;;;;9.00;4.97;;;;;;;5.97;60.09;98883.50;5023502;28;20487;-69
2021/03/11 08:16:22;;;;;;;7.20;4.30;;;;;;;5.84;60.18;98892.81;5006328;28;20056;-69
2021/03/11 08:18:52;;;;;;;5.65;3.70;;;;;;;5.79;60.86;98907.75;5017899;28;20025;-70
2021/03/11 08:21:23;;;;;;;7.70;4.40;;;;;;;6.42;59.89;98902.72;5019765;28;20345;-70
2021/03/11 08:23:49;;;;;;;10.70;4.85;;;;;;;6.50;59.05;98879.78;5000544;28;20080;-68
2021/03/11 08:26:37;;;;;;;10.55;4.57;;;;;;;6.97;58.30;98908.38;5016681;28;20493;-69
2021/03/11 08:29:15;;;;;;;10.48;5.05;;;;;;;6.95;58.25;98905.03;5020081;28;20585;-69
2021/03/11 08:31:41;;;;;;;9.27;5.43;;;;;;;6.80;58.64;98871.22;5019664;28;20033;-69
2021/03/11 08:34:07;;;;;;;8.43;4.07;;;;;;;6.20;60.24;98871.06;4998641;28;20100;-69
2021/03/11 08:36:36;;;;;;;16.13;5.13;;;;;;;7.05;58.44;98865.47;5022437;28;20029;-69
2021/03/11 08:39:31;;;;;;;9.18;5.28;;;;;;;6.64;59.29;98880.78;5023916;28;20029;-69
2021/03/11 08:41:57;;;;;;;10.77;4.30;;;;;;;6.89;58.31;98849.94;5019159;28;20323;-71
2021/03/11 08:48:18;;;;;;;10.02;4.63;;;;;;;7.05;56.98;98865.47;5017284;28;20480;-69
2021/03/11 08:50:45;;;;;;;12.45;4.43;;;;;;;6.20;58.29;98858.91;5016683;28;20041;-70
2021/03/11 08:53:11;;;;;;;20.92;5.80;;;;;;;6.83;56.48;98881.44;5024226;28;20040;-69
2021/03/11 08:55:41;;;;;;;11.45;3.42;;;;;;;6.42;58.22;98842.22;5018102;28;20030;-69
2021/03/11 08:58:27;;;;;;;12.77;3.08;;;;;;;6.69;56.67;98865.78;5024374;28;20038;-69
2021/03/11 09:00:57;;;;;;;6.45;2.38;;;;;;;6.29;57.13;98860.19;5010221;28;20056;-69
2021/03/11 09:03:38;;;;;;;7.95;3.75;;;;;;;6.48;58.31;98873.00;5023253;28;20028;-69
2021/03/11 09:06:04;;;;;;;8.32;3.55;;;;;;;6.49;57.72;98854.75;5017989;28;20454;-69
2021/03/11 09:08:30;;;;;;;9.90;3.60;;;;;;;6.75;56.60;98862.84;4998929;28;22381;-68
2021/03/11 09:11:09;;;;;;;6.57;2.60;;;;;;;7.01;55.55;98855.34;5022751;28;20042;-69
2021/03/11 09:13:35;;;;;;;12.43;3.15;;;;;;;6.64;55.97;98860.00;5018796;28;20037;-69
2021/03/11 09:16:01;;;;;;;8.55;4.03;;;;;;;6.46;55.79;98860.13;5027751;28;20129;-69
2021/03/11 09:18:28;;;;;;;15.07;3.30;;;;;;;6.48;55.74;98871.25;5028204;28;20029;-69
2021/03/11 09:20:54;;;;;;;13.00;3.17;;;;;;;6.39;57.40;98866.53;5018841;28;20061;-69
2021/03/11 09:27:19;;;;;;;7.63;3.50;;;;;;;6.15;58.56;98854.88;5022232;28;20116;-70
2021/03/11 09:29:49;;;;;;;13.70;2.97;;;;;;;6.92;56.67;98854.09;5026457;28;20116;-69
2021/03/11 09:32:15;;;;;;;12.98;3.80;;;;;;;6.86;56.31;98838.88;5024790;28;20065;-70
2021/03/11 09:34:59;;;;;;;11.23;3.00;;;;;;;6.53;56.64;98837.25;5009820;28;20084;-70
2021/03/11 09:37:54;;;;;;;12.25;2.85;;;;;;;7.25;55.32;98825.34;5016991;28;20029;-70
2021/03/11 09:40:23;;;;;;;12.48;2.80;;;;;;;7.00;55.09;98831.13;5024402;28;20072;-70
2021/03/11 09:43:11;;;;;;;14.48;3.13;;;;;;;7.57;54.20;98822.63;5007483;28;20041;-70
2021/03/11 09:45:47;;;;;;;11.77;2.63;;;;;;;7.29;53.48;98815.63;5026728;28;20029;-69
2021/03/11 09:48:41;;;;;;;12.85;3.15;;;;;;;7.13;53.73;98802.66;5030554;28;20041;-69
2021/03/11 09:51:15;;;;;;;9.10;2.30;;;;;;;7.38;52.42;98804.66;5012017;28;20057;-69
2021/03/11 09:53:50;;;;;;;13.13;2.75;;;;;;;7.82;50.86;98797.72;5027515;28;20502;-70
2021/03/11 09:56:22;;;;;;;13.23;2.40;;;;;;;7.15;51.35;98799.97;5026583;28;20041;-70
2021/03/11 09:58:53;;;;;;;16.90;2.53;;;;;;;6.82;50.90;98801.88;5026551;28;20411;-71
2021/03/11 10:01:36;;;;;;;15.38;1.75;;;;;;;7.82;50.01;98784.72;5026810;28;20037;-71
2021/03/11 10:04:22;;;;;;;15.48;2.08;;;;;;;7.62;50.25;98776.38;5026791;28;20065;-69
2021/03/11 10:06:55;;;;;;;21.33;2.58;;;;;;;7.01;50.57;98780.00;5020139;28;20041;-70
2021/03/11 10:09:22;;;;;;;20.80;2.47;;;;;;;7.78;49.38;98772.81;5022430;28;20619;-70
2021/03/11 10:11:52;;;;;;;28.40;3.47;;;;;;;7.69;49.22;98763.81;5022094;28;20030;-70
2021/03/11 10:14:23;;;;;;;22.73;3.50;;;;;;;7.79;48.89;98777.13;5026967;28;20134;-70
2021/03/11 10:16:50;;;;;;;17.88;2.90;;;;;;;6.90;50.43;98778.88;5021817;28;20184;-69
2021/03/11 10:19:17;;;;;;;20.13;3.17;;;;;;;7.64;48.86;98753.72;5025527;28;20045;-69
2021/03/11 10:22:04;;;;;;;20.00;2.72;;;;;;;7.31;49.67;98762.63;5025639;28;20428;-69
2021/03/11 10:24:31;;;;;;;20.10;2.50;;;;;;;7.85;49.85;98758.53;5024284;28;20048;-71
2021/03/11 10:26:58;;;;;;;19.17;3.22;;;;;;;6.92;49.58;98760.59;5024363;28;20038;-71
2021/03/11 10:41:07;;;;;;;30.17;2.55;;;;;;;7.88;49.20;98735.75;5044401;28;20560;-71
2021/03/11 10:43:33;;;;;;;22.33;2.67;;;;;;;7.26;50.39;98733.44;5023068;28;20051;-69
2021/03/11 10:45:58;;;;;;;24.27;3.22;;;;;;;7.63;50.59;98715.66;5028043;28;20041;-69
2021/03/11 10:48:24;;;;;;;20.48;1.52;;;;;;;6.77;51.46;98736.38;5028763;28;20115;-70
2021/03/11 10:50:52;;;;;;;17.30;2.75;;;;;;;7.39;51.55;98711.94;5043172;28;20064;-70
2021/03/11 10:53:20;;;;;;;9.73;1.77;;;;;;;7.06;52.56;98731.22;5022828;28;20086;-70
2021/03/11 10:55:47;;;;;;;20.90;2.25;;;;;;;6.70;52.64;98698.72;5044157;28;20543;-69
2021/03/11 10:58:27;;;;;;;21.90;3.38;;;;;;;6.41;53.50;98700.41;5042749;28;20033;-69
2021/03/11 11:01:20;;;;;;;11.00;2.38;;;;;;;6.64;53.16;98699.06;5026005;28;20048;-69
2021/03/11 11:03:46;;;;;;;16.58;2.05;;;;;;;6.18;55.54;98718.06;5043249;28;20576;-70
2021/03/11 11:06:12;;;;;;;14.55;1.60;;;;;;;5.84;56.54;98729.50;5011857;28;20062;-70
2021/03/11 11:08:43;;;;;;;13.27;2.75;;;;;;;6.06;56.04;98718.75;5026282;28;20070;-70
2021/03/11 11:11:12;;;;;;;14.18;2.25;;;;;;;6.42;55.46;98736.66;5014191;28;20048;-70
2021/03/11 11:13:39;;;;;;;16.25;2.42;;;;;;;6.21;55.73;98699.72;5046181;23;20045;-70
2021/03/11 11:16:04;;;;;;;13.88;2.95;;;;;;;5.82;57.23;98726.97;5032329;28;20091;-71
2021/03/11 11:18:30;;;;;;;13.48;2.25;;;;;;;6.07;57.36;98721.25;5032401;28;20470;-70
2021/03/11 11:20:56;;;;;;;23.92;3.53;;;;;;;6.22;57.20;98723.94;5032514;28;20043;-72
2021/03/11 11:23:21;;;;;;;18.83;2.45;;;;;;;5.56;58.27;98710.22;5033701;28;21111;-70
2021/03/11 11:25:46;;;;;;;35.88;2.90;;;;;;;5.17;59.72;98710.59;5034661;28;20064;-70
2021/03/11 11:28:12;;;;;;;24.95;2.15;;;;;;;6.16;58.47;98701.75;5016704;28;20033;-71
2021/03/11 11:30:38;;;;;;;16.35;2.42;;;;;;;5.19;59.49;98730.31;5034389;28;20059;-71
2021/03/11 11:33:04;;;;;;;19.13;1.92;;;;;;;5.09;59.55;98708.41;5031119;28;20068;-70
2021/03/11 11:35:29;;;;;;;20.05;2.15;;;;;;;5.78;57.75;98747.97;5050281;23;20068;-70
2021/03/11 11:37:55;;;;;;;10.55;1.50;;;;;;;5.22;58.54;98704.25;5030653;28;20041;-70
2021/03/11 11:40:21;;;;;;;7.13;1.17;;;;;;;4.34;60.68;98733.69;5047809;28;20028;-70
2021/03/11 11:42:47;;;;;;;14.32;2.67;;;;;;;4.81;60.01;98686.50;5044269;28;20045;-69
2021/03/11 11:45:15;;;;;;;6.75;0.47;;;;;;;4.94;60.08;98699.66;5042661;28;20071;-70
2021/03/11 11:47:42;;;;;;;17.25;1.40;;;;;;;4.90;60.08;98674.00;5039549;28;20033;-69
2021/03/11 11:50:09;;;;;;;11.25;1.50;;;;;;;4.45;60.87;98709.84;5040444;28;20036;-70
2021/03/11 11:52:36;;;;;;;15.05;1.25;;;;;;;4.78;59.95;98707.34;5040448;28;20069;-69
2021/03/11 11:55:09;;;;;;;8.20;1.58;;;;;;;4.73;61.03;98726.63;5030217;28;20169;-70
2021/03/11 11:57:35;;;;;;;16.00;1.38;;;;;;;4.63;61.64;98688.25;5043385;28;20435;-70
2021/03/11 12:00:00;;;;;;;11.50;1.30;;;;;;;4.61;61.99;98700.44;5048334;28;20116;-70
2021/03/11 12:02:26;;;;;;;17.33;1.30;;;;;;;4.54;62.55;98682.69;5045791;28;20400;-70
2021/03/11 12:04:51;;;;;;;8.63;2.00;;;;;;;4.19;62.57;98630.97;5042041;28;20170;-70